sensor_id;sensor_type;location;lat;lon;timestamp;P1;durP1;ratioP1;P2;durP2;ratioP2
70150;SDS011;57517;43.562;19.540;2023-03-19T00:01:12;22.48;;;15.02;;
70150;SDS011;57517;43.562;19.540;2023-03-19T00:03:38;23.42;;;15.98;;
70150;SDS011;57517;43.562;19.540;2023-03-19T00:06:04;22.33;;;16.17;;
70150;SDS011;57517;43.562;19.540;2023-03-19T00:08:30;22.63;;;16.40;;
70150;SDS011;57517;43.562;19.540;2023-03-19T00:10:56;22.40;;;16.13;;
70150;SDS011;57517;43.562;19.540;2023-03-19T00:13:22;22.45;;;17.08;;
70150;SDS011;57517;43.562;19.540;2023-03-19T00:15:47;27.85;;;20.65;;
70150;SDS011;57517;43.562;19.540;2023-03-19T00:18:13;26.33;;;19.67;;
70150;SDS011;57517;43.562;19.540;2023-03-19T00:20:39;26.40;;;20.13;;
70150;SDS011;57517;43.562;19.540;2023-03-19T00:23:05;38.72;;;26.63;;
70150;SDS011;57517;43.562;19.540;2023-03-19T00:25:31;28.73;;;21.20;;
70150;SDS011;57517;43.562;19.540;2023-03-19T00:27:57;29.27;;;18.92;;
70150;SDS011;57517;43.562;19.540;2023-03-19T00:30:23;37.25;;;24.75;;
70150;SDS011;57517;43.562;19.540;2023-03-19T00:32:49;23.40;;;17.38;;
70150;SDS011;57517;43.562;19.540;2023-03-19T00:35:15;31.23;;;19.70;;
70150;SDS011;57517;43.562;19.540;2023-03-19T00:37:41;25.38;;;18.75;;
70150;SDS011;57517;43.562;19.540;2023-03-19T00:40:07;22.92;;;14.40;;
70150;SDS011;57517;43.562;19.540;2023-03-19T00:42:34;23.38;;;14.50;;
70150;SDS011;57517;43.562;19.540;2023-03-19T00:45:01;25.08;;;16.13;;
70150;SDS011;57517;43.562;19.540;2023-03-19T00:47:27;25.48;;;18.10;;
70150;SDS011;57517;43.562;19.540;2023-03-19T00:49:53;28.20;;;18.73;;
70150;SDS011;57517;43.562;19.540;2023-03-19T00:52:18;27.42;;;20.73;;
70150;SDS011;57517;43.562;19.540;2023-03-19T00:54:44;31.27;;;19.17;;
70150;SDS011;57517;43.562;19.540;2023-03-19T00:57:10;25.77;;;17.80;;
70150;SDS011;57517;43.562;19.540;2023-03-19T00:59:36;23.48;;;17.13;;
70150;SDS011;57517;43.562;19.540;2023-03-19T01:02:02;28.38;;;20.48;;
70150;SDS011;57517;43.562;19.540;2023-03-19T01:04:28;30.20;;;20.05;;
70150;SDS011;57517;43.562;19.540;2023-03-19T01:06:54;24.52;;;18.67;;
70150;SDS011;57517;43.562;19.540;2023-03-19T01:09:20;27.73;;;18.88;;
70150;SDS011;57517;43.562;19.540;2023-03-19T01:11:46;24.98;;;17.42;;
70150;SDS011;57517;43.562;19.540;2023-03-19T01:14:11;23.88;;;15.88;;
70150;SDS011;57517;43.562;19.540;2023-03-19T01:16:40;27.63;;;17.73;;
70150;SDS011;57517;43.562;19.540;2023-03-19T01:19:05;24.17;;;16.90;;
70150;SDS011;57517;43.562;19.540;2023-03-19T01:21:31;24.83;;;16.95;;
70150;SDS011;57517;43.562;19.540;2023-03-19T01:23:58;24.98;;;17.25;;
70150;SDS011;57517;43.562;19.540;2023-03-19T01:26:23;21.80;;;16.25;;
70150;SDS011;57517;43.562;19.540;2023-03-19T01:28:50;25.40;;;17.75;;
70150;SDS011;57517;43.562;19.540;2023-03-19T01:31:16;27.02;;;18.58;;
70150;SDS011;57517;43.562;19.540;2023-03-19T01:33:42;31.33;;;21.48;;
70150;SDS011;57517;43.562;19.540;2023-03-19T01:36:07;41.88;;;27.17;;
70150;SDS011;57517;43.562;19.540;2023-03-19T01:38:33;26.60;;;19.55;;
70150;SDS011;57517;43.562;19.540;2023-03-19T01:40:59;30.10;;;18.75;;
70150;SDS011;57517;43.562;19.540;2023-03-19T01:43:26;21.08;;;15.32;;
70150;SDS011;57517;43.562;19.540;2023-03-19T01:46:04;23.15;;;16.42;;
70150;SDS011;57517;43.562;19.540;2023-03-19T01:48:59;19.58;;;13.50;;
70150;SDS011;57517;43.562;19.540;2023-03-19T01:51:25;19.27;;;15.45;;
70150;SDS011;57517;43.562;19.540;2023-03-19T01:53:58;23.25;;;16.08;;
70150;SDS011;57517;43.562;19.540;2023-03-19T01:56:27;27.77;;;18.70;;
70150;SDS011;57517;43.562;19.540;2023-03-19T01:58:57;27.60;;;18.63;;
70150;SDS011;57517;43.562;19.540;2023-03-19T02:01:27;31.20;;;20.45;;
70150;SDS011;57517;43.562;19.540;2023-03-19T02:03:56;30.30;;;21.85;;
70150;SDS011;57517;43.562;19.540;2023-03-19T02:06:23;29.52;;;19.38;;
70150;SDS011;57517;43.562;19.540;2023-03-19T02:08:49;24.42;;;17.38;;
70150;SDS011;57517;43.562;19.540;2023-03-19T02:11:16;21.15;;;15.38;;
70150;SDS011;57517;43.562;19.540;2023-03-19T02:13:43;20.30;;;14.57;;
70150;SDS011;57517;43.562;19.540;2023-03-19T02:16:11;21.75;;;17.30;;
70150;SDS011;57517;43.562;19.540;2023-03-19T02:18:36;29.65;;;20.02;;
70150;SDS011;57517;43.562;19.540;2023-03-19T02:21:06;29.38;;;20.05;;
70150;SDS011;57517;43.562;19.540;2023-03-19T02:23:39;29.45;;;19.38;;
70150;SDS011;57517;43.562;19.540;2023-03-19T02:26:12;24.98;;;17.35;;
70150;SDS011;57517;43.562;19.540;2023-03-19T02:28:41;18.48;;;13.30;;
70150;SDS011;57517;43.562;19.540;2023-03-19T02:31:08;22.13;;;15.10;;
70150;SDS011;57517;43.562;19.540;2023-03-19T02:33:35;26.25;;;18.98;;
70150;SDS011;57517;43.562;19.540;2023-03-19T02:36:01;25.10;;;17.38;;
70150;SDS011;57517;43.562;19.540;2023-03-19T02:38:29;25.15;;;17.73;;
70150;SDS011;57517;43.562;19.540;2023-03-19T02:41:02;25.55;;;17.42;;
70150;SDS011;57517;43.562;19.540;2023-03-19T02:43:29;24.05;;;17.55;;
70150;SDS011;57517;43.562;19.540;2023-03-19T02:45:57;24.33;;;16.60;;
70150;SDS011;57517;43.562;19.540;2023-03-19T02:48:23;25.40;;;16.88;;
70150;SDS011;57517;43.562;19.540;2023-03-19T02:50:49;21.30;;;14.82;;
70150;SDS011;57517;43.562;19.540;2023-03-19T02:53:15;23.42;;;14.73;;
70150;SDS011;57517;43.562;19.540;2023-03-19T02:55:41;19.27;;;14.75;;
70150;SDS011;57517;43.562;19.540;2023-03-19T02:58:07;19.52;;;13.68;;
70150;SDS011;57517;43.562;19.540;2023-03-19T03:00:33;19.38;;;13.32;;
70150;SDS011;57517;43.562;19.540;2023-03-19T03:02:58;21.08;;;14.02;;
70150;SDS011;57517;43.562;19.540;2023-03-19T03:05:25;21.60;;;13.77;;
70150;SDS011;57517;43.562;19.540;2023-03-19T03:07:51;17.25;;;12.73;;
70150;SDS011;57517;43.562;19.540;2023-03-19T03:10:17;19.88;;;13.75;;
70150;SDS011;57517;43.562;19.540;2023-03-19T03:12:43;18.48;;;13.98;;
70150;SDS011;57517;43.562;19.540;2023-03-19T03:15:10;19.35;;;13.60;;
70150;SDS011;57517;43.562;19.540;2023-03-19T03:17:39;19.67;;;14.38;;
70150;SDS011;57517;43.562;19.540;2023-03-19T03:20:06;19.90;;;14.02;;
70150;SDS011;57517;43.562;19.540;2023-03-19T03:22:35;20.08;;;13.13;;
70150;SDS011;57517;43.562;19.540;2023-03-19T03:25:02;16.58;;;13.48;;
70150;SDS011;57517;43.562;19.540;2023-03-19T03:27:28;18.10;;;13.48;;
70150;SDS011;57517;43.562;19.540;2023-03-19T03:29:54;17.80;;;12.20;;
70150;SDS011;57517;43.562;19.540;2023-03-19T03:32:20;16.23;;;12.60;;
70150;SDS011;57517;43.562;19.540;2023-03-19T03:34:46;17.65;;;12.55;;
70150;SDS011;57517;43.562;19.540;2023-03-19T03:37:12;20.90;;;13.50;;
70150;SDS011;57517;43.562;19.540;2023-03-19T03:39:37;18.42;;;13.00;;
70150;SDS011;57517;43.562;19.540;2023-03-19T03:42:03;18.73;;;12.98;;
70150;SDS011;57517;43.562;19.540;2023-03-19T03:44:29;17.83;;;13.05;;
70150;SDS011;57517;43.562;19.540;2023-03-19T03:46:55;18.63;;;12.75;;
70150;SDS011;57517;43.562;19.540;2023-03-19T03:49:21;19.45;;;13.13;;
70150;SDS011;57517;43.562;19.540;2023-03-19T03:51:47;18.15;;;13.88;;
70150;SDS011;57517;43.562;19.540;2023-03-19T03:54:13;20.13;;;14.10;;
70150;SDS011;57517;43.562;19.540;2023-03-19T03:56:38;21.23;;;13.73;;
70150;SDS011;57517;43.562;19.540;2023-03-19T03:59:04;21.63;;;15.40;;
70150;SDS011;57517;43.562;19.540;2023-03-19T04:01:31;24.33;;;16.70;;
70150;SDS011;57517;43.562;19.540;2023-03-19T04:03:57;25.15;;;15.95;;
70150;SDS011;57517;43.562;19.540;2023-03-19T04:06:23;21.98;;;15.52;;
70150;SDS011;57517;43.562;19.540;2023-03-19T04:08:51;21.30;;;14.35;;
70150;SDS011;57517;43.562;19.540;2023-03-19T04:11:17;22.80;;;14.48;;
70150;SDS011;57517;43.562;19.540;2023-03-19T04:13:43;23.95;;;13.68;;
70150;SDS011;57517;43.562;19.540;2023-03-19T04:16:09;21.00;;;13.88;;
70150;SDS011;57517;43.562;19.540;2023-03-19T04:18:35;23.17;;;14.65;;
70150;SDS011;57517;43.562;19.540;2023-03-19T04:21:02;20.88;;;14.05;;
70150;SDS011;57517;43.562;19.540;2023-03-19T04:23:28;21.58;;;13.93;;
70150;SDS011;57517;43.562;19.540;2023-03-19T04:25:58;19.40;;;14.25;;
70150;SDS011;57517;43.562;19.540;2023-03-19T04:28:25;19.52;;;13.68;;
70150;SDS011;57517;43.562;19.540;2023-03-19T04:30:51;22.70;;;15.38;;
70150;SDS011;57517;43.562;19.540;2023-03-19T04:33:22;22.25;;;15.13;;
70150;SDS011;57517;43.562;19.540;2023-03-19T04:35:48;24.88;;;16.98;;
70150;SDS011;57517;43.562;19.540;2023-03-19T04:38:13;19.73;;;15.93;;
70150;SDS011;57517;43.562;19.540;2023-03-19T04:40:39;24.35;;;16.15;;
70150;SDS011;57517;43.562;19.540;2023-03-19T04:43:05;27.92;;;18.05;;
70150;SDS011;57517;43.562;19.540;2023-03-19T04:45:31;23.77;;;15.63;;
70150;SDS011;57517;43.562;19.540;2023-03-19T04:47:58;22.70;;;15.63;;
70150;SDS011;57517;43.562;19.540;2023-03-19T04:50:23;20.08;;;13.70;;
70150;SDS011;57517;43.562;19.540;2023-03-19T04:52:49;16.50;;;12.60;;
70150;SDS011;57517;43.562;19.540;2023-03-19T04:55:15;18.48;;;12.48;;
70150;SDS011;57517;43.562;19.540;2023-03-19T04:57:40;19.45;;;12.25;;
70150;SDS011;57517;43.562;19.540;2023-03-19T05:00:07;19.10;;;13.02;;
70150;SDS011;57517;43.562;19.540;2023-03-19T05:02:33;22.42;;;13.38;;
70150;SDS011;57517;43.562;19.540;2023-03-19T05:04:59;17.77;;;14.15;;
70150;SDS011;57517;43.562;19.540;2023-03-19T05:07:25;20.25;;;12.77;;
70150;SDS011;57517;43.562;19.540;2023-03-19T05:09:51;19.33;;;12.95;;
70150;SDS011;57517;43.562;19.540;2023-03-19T05:12:17;22.13;;;13.85;;
70150;SDS011;57517;43.562;19.540;2023-03-19T05:14:42;22.17;;;15.55;;
70150;SDS011;57517;43.562;19.540;2023-03-19T05:17:08;23.52;;;16.48;;
70150;SDS011;57517;43.562;19.540;2023-03-19T05:19:35;22.92;;;17.48;;
70150;SDS011;57517;43.562;19.540;2023-03-19T05:22:03;22.77;;;16.58;;
70150;SDS011;57517;43.562;19.540;2023-03-19T05:24:29;22.90;;;16.25;;
70150;SDS011;57517;43.562;19.540;2023-03-19T05:26:54;20.42;;;16.23;;
70150;SDS011;57517;43.562;19.540;2023-03-19T05:29:21;22.30;;;16.70;;
70150;SDS011;57517;43.562;19.540;2023-03-19T05:31:47;26.45;;;16.45;;
70150;SDS011;57517;43.562;19.540;2023-03-19T05:34:13;28.13;;;16.60;;
70150;SDS011;57517;43.562;19.540;2023-03-19T05:36:38;21.65;;;16.48;;
70150;SDS011;57517;43.562;19.540;2023-03-19T05:39:04;21.63;;;16.75;;
70150;SDS011;57517;43.562;19.540;2023-03-19T05:41:30;25.98;;;18.95;;
70150;SDS011;57517;43.562;19.540;2023-03-19T05:43:56;24.55;;;16.48;;
70150;SDS011;57517;43.562;19.540;2023-03-19T05:46:22;29.70;;;22.58;;
70150;SDS011;57517;43.562;19.540;2023-03-19T05:48:48;38.80;;;27.58;;
70150;SDS011;57517;43.562;19.540;2023-03-19T05:51:14;55.63;;;36.42;;
70150;SDS011;57517;43.562;19.540;2023-03-19T05:53:40;75.80;;;55.00;;
70150;SDS011;57517;43.562;19.540;2023-03-19T05:56:06;69.20;;;47.28;;
70150;SDS011;57517;43.562;19.540;2023-03-19T05:58:32;65.32;;;42.75;;
70150;SDS011;57517;43.562;19.540;2023-03-19T06:00:58;50.00;;;36.33;;
70150;SDS011;57517;43.562;19.540;2023-03-19T06:03:24;51.40;;;33.60;;
70150;SDS011;57517;43.562;19.540;2023-03-19T06:05:51;37.97;;;27.17;;
70150;SDS011;57517;43.562;19.540;2023-03-19T06:08:17;29.73;;;22.77;;
70150;SDS011;57517;43.562;19.540;2023-03-19T06:10:43;30.90;;;22.98;;
70150;SDS011;57517;43.562;19.540;2023-03-19T06:13:09;30.52;;;23.42;;
70150;SDS011;57517;43.562;19.540;2023-03-19T06:15:35;29.27;;;23.73;;
70150;SDS011;57517;43.562;19.540;2023-03-19T06:18:01;33.78;;;24.63;;
70150;SDS011;57517;43.562;19.540;2023-03-19T06:20:27;28.58;;;20.70;;
70150;SDS011;57517;43.562;19.540;2023-03-19T06:22:53;24.33;;;18.75;;
70150;SDS011;57517;43.562;19.540;2023-03-19T06:25:19;22.30;;;17.85;;
70150;SDS011;57517;43.562;19.540;2023-03-19T06:27:45;23.85;;;17.30;;
70150;SDS011;57517;43.562;19.540;2023-03-19T06:30:11;22.33;;;17.65;;
70150;SDS011;57517;43.562;19.540;2023-03-19T06:32:38;25.45;;;18.90;;
70150;SDS011;57517;43.562;19.540;2023-03-19T06:35:03;29.10;;;22.20;;
70150;SDS011;57517;43.562;19.540;2023-03-19T06:37:30;33.47;;;26.13;;
70150;SDS011;57517;43.562;19.540;2023-03-19T06:39:57;29.77;;;23.02;;
70150;SDS011;57517;43.562;19.540;2023-03-19T06:42:22;25.98;;;21.15;;
70150;SDS011;57517;43.562;19.540;2023-03-19T06:44:48;24.23;;;19.23;;
70150;SDS011;57517;43.562;19.540;2023-03-19T06:47:14;26.13;;;20.35;;
70150;SDS011;57517;43.562;19.540;2023-03-19T06:49:40;29.58;;;24.95;;
70150;SDS011;57517;43.562;19.540;2023-03-19T06:52:06;40.63;;;31.65;;
70150;SDS011;57517;43.562;19.540;2023-03-19T06:54:32;36.97;;;29.02;;
70150;SDS011;57517;43.562;19.540;2023-03-19T06:56:58;29.05;;;25.85;;
70150;SDS011;57517;43.562;19.540;2023-03-19T06:59:24;35.13;;;30.58;;
70150;SDS011;57517;43.562;19.540;2023-03-19T07:01:50;84.53;;;66.82;;
70150;SDS011;57517;43.562;19.540;2023-03-19T07:04:16;80.20;;;63.40;;
70150;SDS011;57517;43.562;19.540;2023-03-19T07:06:45;71.68;;;59.60;;
70150;SDS011;57517;43.562;19.540;2023-03-19T07:09:13;39.88;;;35.55;;
70150;SDS011;57517;43.562;19.540;2023-03-19T07:11:39;55.08;;;48.55;;
70150;SDS011;57517;43.562;19.540;2023-03-19T07:14:05;36.83;;;33.00;;
70150;SDS011;57517;43.562;19.540;2023-03-19T07:16:31;36.97;;;32.70;;
70150;SDS011;57517;43.562;19.540;2023-03-19T07:18:57;32.83;;;29.42;;
70150;SDS011;57517;43.562;19.540;2023-03-19T07:21:23;42.50;;;38.10;;
70150;SDS011;57517;43.562;19.540;2023-03-19T07:23:48;39.35;;;35.35;;
70150;SDS011;57517;43.562;19.540;2023-03-19T07:26:15;28.45;;;25.50;;
70150;SDS011;57517;43.562;19.540;2023-03-19T07:28:41;27.73;;;24.85;;
70150;SDS011;57517;43.562;19.540;2023-03-19T07:31:07;19.00;;;17.10;;
70150;SDS011;57517;43.562;19.540;2023-03-19T07:33:33;17.23;;;15.40;;
70150;SDS011;57517;43.562;19.540;2023-03-19T07:35:59;17.48;;;15.65;;
70150;SDS011;57517;43.562;19.540;2023-03-19T07:38:25;15.60;;;14.10;;
70150;SDS011;57517;43.562;19.540;2023-03-19T07:40:50;17.67;;;15.85;;
70150;SDS011;57517;43.562;19.540;2023-03-19T07:43:16;16.80;;;14.95;;
70150;SDS011;57517;43.562;19.540;2023-03-19T07:45:42;17.25;;;15.40;;
70150;SDS011;57517;43.562;19.540;2023-03-19T07:48:07;16.05;;;14.45;;
70150;SDS011;57517;43.562;19.540;2023-03-19T07:50:33;17.60;;;15.90;;
70150;SDS011;57517;43.562;19.540;2023-03-19T07:52:59;18.67;;;16.77;;
70150;SDS011;57517;43.562;19.540;2023-03-19T07:55:25;18.23;;;16.40;;
70150;SDS011;57517;43.562;19.540;2023-03-19T07:57:50;17.08;;;15.25;;
70150;SDS011;57517;43.562;19.540;2023-03-19T08:00:16;16.58;;;14.85;;
70150;SDS011;57517;43.562;19.540;2023-03-19T08:02:42;15.60;;;14.10;;
70150;SDS011;57517;43.562;19.540;2023-03-19T08:05:09;13.63;;;12.25;;
70150;SDS011;57517;43.562;19.540;2023-03-19T08:07:35;12.73;;;11.43;;
70150;SDS011;57517;43.562;19.540;2023-03-19T08:10:02;13.10;;;11.80;;
70150;SDS011;57517;43.562;19.540;2023-03-19T08:12:29;13.13;;;11.68;;
70150;SDS011;57517;43.562;19.540;2023-03-19T08:14:56;12.25;;;11.02;;
70150;SDS011;57517;43.562;19.540;2023-03-19T08:17:21;37.92;;;33.90;;
70150;SDS011;57517;43.562;19.540;2023-03-19T08:19:47;28.73;;;23.33;;
70150;SDS011;57517;43.562;19.540;2023-03-19T08:22:13;27.90;;;24.38;;
70150;SDS011;57517;43.562;19.540;2023-03-19T08:24:39;19.55;;;17.45;;
70150;SDS011;57517;43.562;19.540;2023-03-19T08:27:04;22.48;;;20.10;;
70150;SDS011;57517;43.562;19.540;2023-03-19T08:29:30;21.08;;;18.83;;
70150;SDS011;57517;43.562;19.540;2023-03-19T08:31:56;22.20;;;19.80;;
70150;SDS011;57517;43.562;19.540;2023-03-19T08:34:23;23.20;;;20.80;;
70150;SDS011;57517;43.562;19.540;2023-03-19T08:36:49;23.15;;;20.70;;
70150;SDS011;57517;43.562;19.540;2023-03-19T08:39:14;22.55;;;20.15;;
70150;SDS011;57517;43.562;19.540;2023-03-19T08:41:40;21.33;;;19.20;;
70150;SDS011;57517;43.562;19.540;2023-03-19T08:44:06;19.65;;;17.67;;
70150;SDS011;57517;43.562;19.540;2023-03-19T08:46:32;18.27;;;16.48;;
70150;SDS011;57517;43.562;19.540;2023-03-19T08:48:58;16.60;;;15.07;;
70150;SDS011;57517;43.562;19.540;2023-03-19T08:51:24;16.55;;;15.00;;
70150;SDS011;57517;43.562;19.540;2023-03-19T08:53:51;17.55;;;15.82;;
70150;SDS011;57517;43.562;19.540;2023-03-19T08:56:17;18.00;;;16.20;;
70150;SDS011;57517;43.562;19.540;2023-03-19T08:58:43;16.45;;;14.90;;
70150;SDS011;57517;43.562;19.540;2023-03-19T09:01:10;20.95;;;18.85;;
70150;SDS011;57517;43.562;19.540;2023-03-19T09:03:38;17.92;;;16.13;;
70150;SDS011;57517;43.562;19.540;2023-03-19T09:06:06;15.18;;;13.63;;
70150;SDS011;57517;43.562;19.540;2023-03-19T09:08:33;14.50;;;13.20;;
70150;SDS011;57517;43.562;19.540;2023-03-19T09:10:59;14.43;;;13.00;;
70150;SDS011;57517;43.562;19.540;2023-03-19T09:13:25;13.32;;;11.98;;
70150;SDS011;57517;43.562;19.540;2023-03-19T09:15:51;13.45;;;12.07;;
70150;SDS011;57517;43.562;19.540;2023-03-19T09:18:17;14.02;;;12.57;;
70150;SDS011;57517;43.562;19.540;2023-03-19T09:20:45;15.02;;;13.48;;
70150;SDS011;57517;43.562;19.540;2023-03-19T09:23:11;19.60;;;17.58;;
70150;SDS011;57517;43.562;19.540;2023-03-19T09:25:37;15.15;;;13.65;;
70150;SDS011;57517;43.562;19.540;2023-03-19T09:28:03;15.88;;;14.23;;
70150;SDS011;57517;43.562;19.540;2023-03-19T09:30:29;15.23;;;13.63;;
70150;SDS011;57517;43.562;19.540;2023-03-19T09:32:55;20.05;;;13.93;;
70150;SDS011;57517;43.562;19.540;2023-03-19T09:35:21;15.63;;;14.02;;
70150;SDS011;57517;43.562;19.540;2023-03-19T09:37:47;14.68;;;12.85;;
70150;SDS011;57517;43.562;19.540;2023-03-19T09:40:26;14.25;;;12.77;;
70150;SDS011;57517;43.562;19.540;2023-03-19T09:43:03;15.57;;;13.90;;
70150;SDS011;57517;43.562;19.540;2023-03-19T09:45:38;14.88;;;13.25;;
70150;SDS011;57517;43.562;19.540;2023-03-19T09:48:05;15.27;;;13.68;;
70150;SDS011;57517;43.562;19.540;2023-03-19T09:50:35;15.05;;;13.43;;
70150;SDS011;57517;43.562;19.540;2023-03-19T09:53:19;15.77;;;14.10;;
70150;SDS011;57517;43.562;19.540;2023-03-19T09:55:54;15.85;;;14.25;;
70150;SDS011;57517;43.562;19.540;2023-03-19T09:58:33;15.25;;;13.73;;
70150;SDS011;57517;43.562;19.540;2023-03-19T10:01:00;22.77;;;20.35;;
70150;SDS011;57517;43.562;19.540;2023-03-19T10:06:34;21.40;;;19.20;;
70150;SDS011;57517;43.562;19.540;2023-03-19T10:22:50;19.35;;;15.43;;
70150;SDS011;57517;43.562;19.540;2023-03-19T10:25:22;17.52;;;14.63;;
70150;SDS011;57517;43.562;19.540;2023-03-19T10:27:58;18.48;;;16.50;;
70150;SDS011;57517;43.562;19.540;2023-03-19T10:30:26;14.23;;;10.75;;
70150;SDS011;57517;43.562;19.540;2023-03-19T10:33:43;17.45;;;13.95;;
70150;SDS011;57517;43.562;19.540;2023-03-19T10:35:56;15.32;;;13.45;;
70150;SDS011;57517;43.562;19.540;2023-03-19T10:38:28;14.70;;;11.80;;
70150;SDS011;57517;43.562;19.540;2023-03-19T10:43:55;13.32;;;11.88;;
70150;SDS011;57517;43.562;19.540;2023-03-19T10:46:25;12.48;;;9.95;;
70150;SDS011;57517;43.562;19.540;2023-03-19T10:48:51;13.23;;;10.77;;
70150;SDS011;57517;43.562;19.540;2023-03-19T10:51:21;11.98;;;10.40;;
70150;SDS011;57517;43.562;19.540;2023-03-19T10:53:51;18.08;;;12.20;;
70150;SDS011;57517;43.562;19.540;2023-03-19T10:58:55;14.27;;;10.83;;
70150;SDS011;57517;43.562;19.540;2023-03-19T11:01:33;17.90;;;14.50;;
70150;SDS011;57517;43.562;19.540;2023-03-19T11:04:21;25.95;;;19.95;;
70150;SDS011;57517;43.562;19.540;2023-03-19T11:06:48;28.23;;;20.38;;
70150;SDS011;57517;43.562;19.540;2023-03-19T11:09:49;19.65;;;14.57;;
70150;SDS011;57517;43.562;19.540;2023-03-19T11:14:58;13.13;;;11.15;;
70150;SDS011;57517;43.562;19.540;2023-03-19T11:22:56;13.38;;;11.07;;
70150;SDS011;57517;43.562;19.540;2023-03-19T11:36:17;12.88;;;10.95;;
70150;SDS011;57517;43.562;19.540;2023-03-19T11:41:57;12.20;;;9.93;;
70150;SDS011;57517;43.562;19.540;2023-03-19T11:47:22;10.80;;;9.07;;
70150;SDS011;57517;43.562;19.540;2023-03-19T11:49:58;12.93;;;9.70;;
70150;SDS011;57517;43.562;19.540;2023-03-19T11:52:55;17.45;;;14.57;;
70150;SDS011;57517;43.562;19.540;2023-03-19T12:01:33;13.48;;;10.75;;
70150;SDS011;57517;43.562;19.540;2023-03-19T12:04:01;14.43;;;10.57;;
70150;SDS011;57517;43.562;19.540;2023-03-19T12:15:26;10.77;;;7.97;;
70150;SDS011;57517;43.562;19.540;2023-03-19T12:24:03;8.98;;;6.60;;
70150;SDS011;57517;43.562;19.540;2023-03-19T12:29:34;11.60;;;7.63;;
70150;SDS011;57517;43.562;19.540;2023-03-19T12:37:29;9.85;;;7.68;;
70150;SDS011;57517;43.562;19.540;2023-03-19T12:42:39;7.70;;;5.10;;
70150;SDS011;57517;43.562;19.540;2023-03-19T12:48:14;10.23;;;7.53;;
70150;SDS011;57517;43.562;19.540;2023-03-19T12:50:54;10.20;;;7.10;;
70150;SDS011;57517;43.562;19.540;2023-03-19T12:53:41;8.98;;;6.65;;
70150;SDS011;57517;43.562;19.540;2023-03-19T12:56:13;8.88;;;5.43;;
70150;SDS011;57517;43.562;19.540;2023-03-19T12:58:45;8.93;;;5.97;;
70150;SDS011;57517;43.562;19.540;2023-03-19T13:01:15;8.65;;;6.00;;
70150;SDS011;57517;43.562;19.540;2023-03-19T13:03:54;7.65;;;6.78;;
70150;SDS011;57517;43.562;19.540;2023-03-19T13:06:27;12.10;;;5.13;;
70150;SDS011;57517;43.562;19.540;2023-03-19T13:14:37;12.98;;;8.85;;
70150;SDS011;57517;43.562;19.540;2023-03-19T13:19:50;45.00;;;21.70;;
70150;SDS011;57517;43.562;19.540;2023-03-19T13:22:20;27.50;;;16.83;;
70150;SDS011;57517;43.562;19.540;2023-03-19T13:24:48;39.92;;;21.20;;
70150;SDS011;57517;43.562;19.540;2023-03-19T13:27:26;18.92;;;11.75;;
70150;SDS011;57517;43.562;19.540;2023-03-19T13:32:38;39.45;;;23.95;;
70150;SDS011;57517;43.562;19.540;2023-03-19T13:38:37;19.15;;;12.32;;
70150;SDS011;57517;43.562;19.540;2023-03-19T13:40:52;33.42;;;20.98;;
70150;SDS011;57517;43.562;19.540;2023-03-19T13:48:39;24.35;;;16.55;;
70150;SDS011;57517;43.562;19.540;2023-03-19T13:59:29;20.08;;;13.75;;
70150;SDS011;57517;43.562;19.540;2023-03-19T14:02:02;18.27;;;12.43;;
70150;SDS011;57517;43.562;19.540;2023-03-19T14:07:27;29.65;;;20.15;;
70150;SDS011;57517;43.562;19.540;2023-03-19T14:12:49;30.05;;;19.25;;
70150;SDS011;57517;43.562;19.540;2023-03-19T14:15:22;25.70;;;15.40;;
70150;SDS011;57517;43.562;19.540;2023-03-19T14:20:24;21.83;;;15.05;;
70150;SDS011;57517;43.562;19.540;2023-03-19T14:23:01;18.33;;;13.68;;
70150;SDS011;57517;43.562;19.540;2023-03-19T14:28:28;20.50;;;13.90;;
70150;SDS011;57517;43.562;19.540;2023-03-19T14:31:52;12.05;;;9.38;;
70150;SDS011;57517;43.562;19.540;2023-03-19T14:36:37;82.93;;;23.08;;
70150;SDS011;57517;43.562;19.540;2023-03-19T14:39:28;36.92;;;17.80;;
70150;SDS011;57517;43.562;19.540;2023-03-19T14:42:07;29.98;;;16.75;;
70150;SDS011;57517;43.562;19.540;2023-03-19T14:48:18;36.35;;;26.38;;
70150;SDS011;57517;43.562;19.540;2023-03-19T14:54:11;29.17;;;23.90;;
70150;SDS011;57517;43.562;19.540;2023-03-19T14:56:51;32.50;;;24.27;;
70150;SDS011;57517;43.562;19.540;2023-03-19T14:59:12;28.08;;;21.65;;
70150;SDS011;57517;43.562;19.540;2023-03-19T15:01:40;20.33;;;14.68;;
70150;SDS011;57517;43.562;19.540;2023-03-19T15:04:11;26.85;;;20.65;;
70150;SDS011;57517;43.562;19.540;2023-03-19T15:06:40;29.13;;;19.75;;
70150;SDS011;57517;43.562;19.540;2023-03-19T15:09:20;32.90;;;23.33;;
70150;SDS011;57517;43.562;19.540;2023-03-19T15:18:08;40.60;;;27.65;;
70150;SDS011;57517;43.562;19.540;2023-03-19T15:20:37;51.42;;;38.03;;
70150;SDS011;57517;43.562;19.540;2023-03-19T15:23:09;55.47;;;39.72;;
70150;SDS011;57517;43.562;19.540;2023-03-19T15:25:51;54.90;;;41.75;;
70150;SDS011;57517;43.562;19.540;2023-03-19T15:28:21;48.35;;;34.00;;
70150;SDS011;57517;43.562;19.540;2023-03-19T15:30:59;45.58;;;34.13;;
70150;SDS011;57517;43.562;19.540;2023-03-19T15:33:31;47.00;;;33.45;;
70150;SDS011;57517;43.562;19.540;2023-03-19T15:36:01;62.75;;;48.55;;
70150;SDS011;57517;43.562;19.540;2023-03-19T15:38:34;65.40;;;51.10;;
70150;SDS011;57517;43.562;19.540;2023-03-19T15:41:06;48.33;;;36.25;;
70150;SDS011;57517;43.562;19.540;2023-03-19T15:43:37;39.00;;;29.20;;
70150;SDS011;57517;43.562;19.540;2023-03-19T15:46:05;35.72;;;26.23;;
70150;SDS011;57517;43.562;19.540;2023-03-19T15:51:01;37.55;;;27.65;;
70150;SDS011;57517;43.562;19.540;2023-03-19T15:53:31;44.78;;;31.33;;
70150;SDS011;57517;43.562;19.540;2023-03-19T15:55:59;40.28;;;28.35;;
70150;SDS011;57517;43.562;19.540;2023-03-19T15:58:28;49.90;;;33.67;;
70150;SDS011;57517;43.562;19.540;2023-03-19T16:00:56;51.67;;;38.50;;
70150;SDS011;57517;43.562;19.540;2023-03-19T16:03:29;55.58;;;43.80;;
70150;SDS011;57517;43.562;19.540;2023-03-19T16:06:00;52.80;;;39.90;;
70150;SDS011;57517;43.562;19.540;2023-03-19T16:08:28;48.80;;;38.47;;
70150;SDS011;57517;43.562;19.540;2023-03-19T16:10:54;42.30;;;32.92;;
70150;SDS011;57517;43.562;19.540;2023-03-19T16:13:39;29.88;;;23.38;;
70150;SDS011;57517;43.562;19.540;2023-03-19T16:18:41;31.75;;;23.35;;
70150;SDS011;57517;43.562;19.540;2023-03-19T16:21:18;25.83;;;20.13;;
70150;SDS011;57517;43.562;19.540;2023-03-19T16:24:46;36.63;;;27.20;;
70150;SDS011;57517;43.562;19.540;2023-03-19T16:26:58;31.08;;;22.05;;
70150;SDS011;57517;43.562;19.540;2023-03-19T16:29:28;29.15;;;22.60;;
70150;SDS011;57517;43.562;19.540;2023-03-19T16:34:47;46.40;;;34.47;;
70150;SDS011;57517;43.562;19.540;2023-03-19T16:37:24;49.60;;;34.35;;
70150;SDS011;57517;43.562;19.540;2023-03-19T16:39:56;57.88;;;35.97;;
70150;SDS011;57517;43.562;19.540;2023-03-19T16:42:28;61.38;;;43.03;;
70150;SDS011;57517;43.562;19.540;2023-03-19T16:44:57;56.65;;;42.20;;